Time;durP1;ratioP1;P1;durP2;ratioP2;P2;SDS_P1;SDS_P2;PMS_P1;PMS_P2;Temp;Humidity;BMP_temperature;BMP_pressure;BME280_temperature;BME280_humidity;BME280_pressure;Samples;Min_cycle;Max_cycle;Signal;HPM_P1;HPM_P2
2022/11/26 00:02:09;;;;;;;6.43;4.72;;;;;;;;;;5061324;28;20531;-75
2022/11/26 00:04:35;;;;;;;6.35;5.10;;;;;;;;;;5046540;28;20036;-74
2022/11/26 00:07:02;;;;;;;3.85;3.58;;;;;;;;;;5047624;28;20037;-74
2022/11/26 00:09:33;;;;;;;8.15;7.45;;;;;;;;;;5041209;28;20524;-73
2022/11/26 00:11:59;;;;;;;5.65;5.15;;;;;;;;;;5023187;28;20124;-74
2022/11/26 00:14:26;;;;;;;4.93;4.40;;;;;;;;;;5039668;28;20491;-75
2022/11/26 00:16:52;;;;;;;4.25;3.85;;;;;;;;;;5078978;28;20032;-75
2022/11/26 00:19:43;;;;;;;4.22;3.83;;;;;;;;;;5056118;28;20090;-75
2022/11/26 00:22:30;;;;;;;4.15;3.78;;;;;;;;;;5036816;28;20037;-74
2022/11/26 00:24:56;;;;;;;4.63;4.22;;;;;;;;;;5039593;28;20587;-75
2022/11/26 00:27:23;;;;;;;5.38;4.93;;;;;;;;;;5020256;28;20127;-75
2022/11/26 00:29:50;;;;;;;5.40;5.00;;;;;;;;;;5036748;28;20514;-75
2022/11/26 00:32:16;;;;;;;5.63;5.00;;;;;;;;;;5020020;28;20131;-75
2022/11/26 00:34:43;;;;;;;4.53;4.13;;;;;;;;;;5070475;28;20362;-74
2022/11/26 00:37:26;;;;;;;3.75;3.50;;;;;;;;;;5019091;28;20041;-75
2022/11/26 00:39:53;;;;;;;3.92;3.63;;;;;;;;;;5035060;28;20059;-74
2022/11/26 00:42:20;;;;;;;8.52;7.82;;;;;;;;;;5019391;28;20535;-74
2022/11/26 00:44:51;;;;;;;4.90;4.50;;;;;;;;;;5036264;28;20119;-74
2022/11/26 00:47:18;;;;;;;6.93;6.25;;;;;;;;;;5052178;28;20062;-75
2022/11/26 00:49:44;;;;;;;6.43;5.82;;;;;;;;;;5018608;28;20048;-75
2022/11/26 00:52:21;;;;;;;4.53;4.13;;;;;;;;;;5035630;28;20028;-73
2022/11/26 00:54:47;;;;;;;8.77;8.07;;;;;;;;;;5018672;28;20043;-75
2022/11/26 00:57:13;;;;;;;5.40;4.78;;;;;;;;;;5002486;28;20032;-74
2022/11/26 00:59:39;;;;;;;6.93;6.22;;;;;;;;;;5069357;28;20079;-74
2022/11/26 01:02:08;;;;;;;5.20;4.80;;;;;;;;;;5002958;28;20646;-74
2022/11/26 01:04:47;;;;;;;5.20;4.80;;;;;;;;;;5068768;28;20050;-74
2022/11/26 01:07:13;;;;;;;8.02;7.43;;;;;;;;;;5069537;28;20033;-74
2022/11/26 01:09:57;;;;;;;3.28;3.08;;;;;;;;;;5067426;28;20044;-74
2022/11/26 01:12:23;;;;;;;8.02;4.68;;;;;;;;;;5002320;28;20040;-74
2022/11/26 01:14:49;;;;;;;5.00;4.60;;;;;;;;;;5018155;28;20099;-74
2022/11/26 01:17:35;;;;;;;8.25;7.45;;;;;;;;;;5034792;28;20032;-75
2022/11/26 01:20:00;;;;;;;6.68;6.05;;;;;;;;;;5017987;28;20044;-74
2022/11/26 01:22:28;;;;;;;7.93;6.47;;;;;;;;;;5069281;28;20043;-75
2022/11/26 01:24:57;;;;;;;8.52;7.85;;;;;;;;;;5034602;28;20048;-74
2022/11/26 01:27:29;;;;;;;5.15;4.68;;;;;;;;;;5018751;28;20035;-73
2022/11/26 01:29:56;;;;;;;7.55;6.90;;;;;;;;;;5018161;28;20054;-75
2022/11/26 01:32:22;;;;;;;6.80;4.93;;;;;;;;;;5018099;28;20047;-75
2022/11/26 01:34:48;;;;;;;5.35;4.90;;;;;;;;;;5017738;28;20064;-74
2022/11/26 01:37:15;;;;;;;9.45;7.05;;;;;;;;;;5068977;28;20070;-74
2022/11/26 01:39:41;;;;;;;4.78;4.35;;;;;;;;;;5034076;28;20128;-74
2022/11/26 01:42:31;;;;;;;7.47;5.70;;;;;;;;;;5018127;28;20036;-75
2022/11/26 01:44:57;;;;;;;4.60;4.20;;;;;;;;;;5034407;28;20043;-75
2022/11/26 01:47:24;;;;;;;6.82;5.45;;;;;;;;;;5069103;28;20420;-74
2022/11/26 01:53:32;;;;;;;5.57;5.05;;;;;;;;;;5067924;28;20036;-74
2022/11/26 01:55:59;;;;;;;6.68;6.10;;;;;;;;;;5000889;28;20037;-74
2022/11/26 01:58:30;;;;;;;6.43;5.85;;;;;;;;;;5050357;28;20112;-74
2022/11/26 02:00:57;;;;;;;5.95;5.38;;;;;;;;;;5017756;28;20840;-74
2022/11/26 02:03:24;;;;;;;6.32;4.53;;;;;;;;;;5031663;28;20047;-74
2022/11/26 02:05:54;;;;;;;3.78;3.58;;;;;;;;;;5068905;28;20033;-74
2022/11/26 02:11:23;;;;;;;6.82;5.63;;;;;;;;;;5051721;28;20106;-75
2022/11/26 02:14:04;;;;;;;4.00;3.70;;;;;;;;;;5017710;28;20121;-74
2022/11/26 02:16:35;;;;;;;6.78;6.03;;;;;;;;;;5017514;28;20067;-75
2022/11/26 02:19:11;;;;;;;5.95;3.80;;;;;;;;;;5034300;28;20119;-74
2022/11/26 02:21:37;;;;;;;6.43;5.93;;;;;;;;;;5017461;28;20048;-74
2022/11/26 02:24:03;;;;;;;3.63;3.17;;;;;;;;;;5017700;28;20067;-74
2022/11/26 02:26:32;;;;;;;3.53;3.33;;;;;;;;;;5068599;28;20622;-75
2022/11/26 02:29:11;;;;;;;4.47;4.18;;;;;;;;;;5034110;28;20025;-75
2022/11/26 02:31:57;;;;;;;5.40;4.90;;;;;;;;;;5017644;28;20089;-75
2022/11/26 02:34:34;;;;;;;3.90;3.50;;;;;;;;;;5033943;28;20534;-75
2022/11/26 02:37:01;;;;;;;2.83;2.72;;;;;;;;;;5032914;28;20123;-76
2022/11/26 02:39:27;;;;;;;4.40;3.95;;;;;;;;;;5000960;28;20455;-74
2022/11/26 02:41:57;;;;;;;3.40;3.20;;;;;;;;;;4999339;28;20092;-76
2022/11/26 02:44:42;;;;;;;4.13;3.83;;;;;;;;;;4997916;28;20032;-75
2022/11/26 02:50:02;;;;;;;5.90;5.50;;;;;;;;;;5000788;28;20508;-74
2022/11/26 02:52:28;;;;;;;6.85;6.25;;;;;;;;;;5001926;28;20033;-74
2022/11/26 02:54:59;;;;;;;2.60;2.42;;;;;;;;;;5019337;28;20087;-74
2022/11/26 02:57:25;;;;;;;3.75;3.28;;;;;;;;;;5001444;28;20029;-75
2022/11/26 03:03:04;;;;;;;;;;;;;;;;;;5034157;28;20041;-74
2022/11/26 03:05:31;;;;;;;4.85;3.50;;;;;;;;;;5034116;28;19912;-73
2022/11/26 03:07:58;;;;;;;5.13;4.70;;;;;;;;;;5017603;28;20036;-74
2022/11/26 03:10:25;;;;;;;5.20;4.80;;;;;;;;;;5033643;28;20112;-75
2022/11/26 03:12:57;;;;;;;5.47;5.03;;;;;;;;;;5001054;28;20413;-74
2022/11/26 03:15:32;;;;;;;5.28;4.88;;;;;;;;;;5017620;28;20495;-74
2022/11/26 03:18:03;;;;;;;;;;;;;;;;;;5002172;28;20037;-74
2022/11/26 03:20:29;;;;;;;3.90;3.60;;;;;;;;;;5000919;28;20454;-74
2022/11/26 03:23:06;;;;;;;3.55;3.03;;;;;;;;;;5034342;28;20501;-75
2022/11/26 03:25:32;;;;;;;2.60;2.50;;;;;;;;;;5003445;28;20056;-75
2022/11/26 03:28:01;;;;;;;3.28;3.03;;;;;;;;;;4990752;28;20152;-75
2022/11/26 03:30:31;;;;;;;4.97;4.68;;;;;;;;;;5025094;28;20037;-75
2022/11/26 03:32:57;;;;;;;3.38;3.17;;;;;;;;;;5025347;28;20929;-75
2022/11/26 03:35:24;;;;;;;2.65;2.55;;;;;;;;;;5008120;28;20057;-74
2022/11/26 03:38:06;;;;;;;4.20;3.80;;;;;;;;;;5028683;28;20517;-75
2022/11/26 03:40:38;;;;;;;2.72;2.60;;;;;;;;;;5034677;28;20051;-75
2022/11/26 03:43:04;;;;;;;4.63;4.32;;;;;;;;;;5044943;28;20047;-75
2022/11/26 03:45:35;;;;;;;3.20;3.00;;;;;;;;;;5061057;28;20028;-75
2022/11/26 03:48:04;;;;;;;4.10;3.75;;;;;;;;;;5060005;28;20044;-74
2022/11/26 03:50:40;;;;;;;5.15;4.85;;;;;;;;;;5076943;28;20075;-75
2022/11/26 03:53:06;;;;;;;6.88;3.53;;;;;;;;;;5012763;28;20500;-75
2022/11/26 03:55:32;;;;;;;5.22;4.70;;;;;;;;;;5029757;28;20059;-75
2022/11/26 03:57:58;;;;;;;4.53;4.22;;;;;;;;;;5099323;28;20085;-75
2022/11/26 04:00:25;;;;;;;4.60;4.30;;;;;;;;;;5032349;28;20047;-75
2022/11/26 04:02:51;;;;;;;5.15;4.65;;;;;;;;;;5047394;28;20036;-75
2022/11/26 04:05:17;;;;;;;3.45;3.17;;;;;;;;;;5030573;28;20040;-74
2022/11/26 04:07:46;;;;;;;4.18;3.88;;;;;;;;;;5049444;28;20404;-75
2022/11/26 04:10:12;;;;;;;2.70;2.55;;;;;;;;;;5065014;28;20049;-75
2022/11/26 04:13:01;;;;;;;3.50;3.30;;;;;;;;;;5064032;28;20031;-74
2022/11/26 04:15:30;;;;;;;;;;;;;;;;;;5092832;28;20051;-75
2022/11/26 04:17:56;;;;;;;3.28;2.97;;;;;;;;;;5081049;28;19911;-74
2022/11/26 04:20:22;;;;;;;2.97;2.78;;;;;;;;;;5049620;28;20527;-74
2022/11/26 04:22:48;;;;;;;3.35;3.15;;;;;;;;;;5097339;28;20411;-74
2022/11/26 04:25:14;;;;;;;3.50;3.30;;;;;;;;;;5079642;28;20120;-75
2022/11/26 04:27:40;;;;;;;4.63;4.32;;;;;;;;;;5047618;28;20052;-74
2022/11/26 04:30:07;;;;;;;2.90;2.80;;;;;;;;;;5099979;28;20032;-75
2022/11/26 04:32:38;;;;;;;3.70;3.50;;;;;;;;;;5079296;28;20050;-75
2022/11/26 04:35:09;;;;;;;6.20;5.70;;;;;;;;;;5061620;28;20169;-75
2022/11/26 04:37:35;;;;;;;4.93;3.65;;;;;;;;;;5062573;28;20059;-75
2022/11/26 04:40:01;;;;;;;2.90;2.70;;;;;;;;;;5062137;28;20036;-75
2022/11/26 04:42:28;;;;;;;5.07;4.78;;;;;;;;;;5079286;28;20077;-73
2022/11/26 04:44:56;;;;;;;5.07;4.68;;;;;;;;;;5062207;28;20119;-75
2022/11/26 04:47:23;;;;;;;4.53;4.22;;;;;;;;;;5062710;28;20036;-74
2022/11/26 04:49:49;;;;;;;3.83;3.53;;;;;;;;;;5061852;28;20032;-74
2022/11/26 04:52:15;;;;;;;4.63;4.22;;;;;;;;;;5062072;28;20028;-74
2022/11/26 04:54:50;;;;;;;4.63;4.22;;;;;;;;;;5094233;28;20329;-74
2022/11/26 04:57:21;;;;;;;4.95;4.65;;;;;;;;;;5077320;28;20090;-74
2022/11/26 04:59:50;;;;;;;4.88;4.38;;;;;;;;;;5043992;28;20511;-75
2022/11/26 05:02:16;;;;;;;4.05;3.75;;;;;;;;;;5075016;28;20110;-75
2022/11/26 05:04:51;;;;;;;4.13;3.83;;;;;;;;;;5074226;28;20087;-74
2022/11/26 05:07:18;;;;;;;4.90;4.50;;;;;;;;;;5075508;28;20044;-74
2022/11/26 05:09:46;;;;;;;4.70;4.32;;;;;;;;;;5087443;28;20163;-74
2022/11/26 05:12:12;;;;;;;6.28;5.70;;;;;;;;;;5063742;28;20051;-74
2022/11/26 05:14:38;;;;;;;7.07;6.57;;;;;;;;;;5064084;28;20033;-74
2022/11/26 05:17:10;;;;;;;6.53;6.13;;;;;;;;;;5031522;28;20569;-74
2022/11/26 05:19:35;;;;;;;6.18;5.65;;;;;;;;;;5030176;28;20048;-74
2022/11/26 05:22:01;;;;;;;5.53;5.13;;;;;;;;;;5024870;28;20476;-75
2022/11/26 05:24:28;;;;;;;4.85;4.45;;;;;;;;;;5036092;28;20143;-74
2022/11/26 05:26:56;;;;;;;3.58;3.38;;;;;;;;;;5036090;28;20134;-75
2022/11/26 05:29:38;;;;;;;4.35;3.95;;;;;;;;;;5053344;28;20174;-74
2022/11/26 05:32:32;;;;;;;5.53;5.13;;;;;;;;;;5052649;28;20036;-74
2022/11/26 05:34:58;;;;;;;5.05;4.50;;;;;;;;;;5034633;28;20032;-74
2022/11/26 05:37:24;;;;;;;5.40;4.93;;;;;;;;;;5018981;28;20071;-77
2022/11/26 05:39:51;;;;;;;5.25;4.90;;;;;;;;;;5018898;28;20090;-77
2022/11/26 05:42:21;;;;;;;5.32;4.93;;;;;;;;;;5037739;28;20090;-77
2022/11/26 05:44:47;;;;;;;6.22;5.78;;;;;;;;;;5070423;28;20500;-78
2022/11/26 05:47:13;;;;;;;3.75;3.55;;;;;;;;;;5020046;28;20075;-79
2022/11/26 05:49:43;;;;;;;3.53;3.33;;;;;;;;;;5056655;28;20068;-79
2022/11/26 05:52:09;;;;;;;4.95;4.55;;;;;;;;;;5069017;28;20024;-78
2022/11/26 05:54:35;;;;;;;3.55;3.35;;;;;;;;;;5071386;28;20035;-77
2022/11/26 05:57:22;;;;;;;5.30;4.90;;;;;;;;;;5104002;28;20043;-82
2022/11/26 05:59:48;;;;;;;4.35;4.05;;;;;;;;;;5063075;28;20040;-82
2022/11/26 06:02:30;;;;;;;4.68;4.38;;;;;;;;;;5035760;28;20032;-83
2022/11/26 06:04:56;;;;;;;4.57;4.18;;;;;;;;;;5052905;28;20039;-84
2022/11/26 06:07:23;;;;;;;3.75;3.55;;;;;;;;;;5033030;28;20111;-82
2022/11/26 06:09:53;;;;;;;4.40;4.10;;;;;;;;;;5043250;28;20036;-79
2022/11/26 06:15:30;;;;;;;5.75;5.07;;;;;;;;;;5044566;28;20032;-80
2022/11/26 06:17:57;;;;;;;4.57;4.28;;;;;;;;;;5041495;28;20047;-84
2022/11/26 06:20:23;;;;;;;3.85;3.55;;;;;;;;;;5044659;28;20040;-81
2022/11/26 06:22:49;;;;;;;5.68;5.30;;;;;;;;;;5030783;28;20028;-84
2022/11/26 06:25:16;;;;;;;5.32;4.93;;;;;;;;;;5035121;28;20083;-84
2022/11/26 06:27:42;;;;;;;4.65;4.25;;;;;;;;;;5054755;28;20048;-83
2022/11/26 06:30:17;;;;;;;5.55;5.15;;;;;;;;;;5057316;28;20033;-84
2022/11/26 06:32:49;;;;;;;6.30;5.85;;;;;;;;;;5073132;28;20036;-81
2022/11/26 06:35:40;;;;;;;5.55;5.13;;;;;;;;;;5053195;28;20126;-82
2022/11/26 06:38:16;;;;;;;5.70;5.20;;;;;;;;;;5069654;28;20036;-77
2022/11/26 06:40:54;;;;;;;6.47;5.97;;;;;;;;;;5009336;28;20052;-78
2022/11/26 06:43:20;;;;;;;6.28;5.78;;;;;;;;;;5045916;28;20029;-79
2022/11/26 06:45:51;;;;;;;3.10;2.90;;;;;;;;;;4980135;28;20029;-83
2022/11/26 06:48:17;;;;;;;1.88;1.85;;;;;;;;;;5003241;28;20029;-82
2022/11/26 06:50:43;;;;;;;5.75;5.25;;;;;;;;;;5015256;28;20029;-77
2022/11/26 06:53:11;;;;;;;4.97;4.68;;;;;;;;;;4998551;28;20028;-79
2022/11/26 06:55:44;;;;;;;3.95;3.65;;;;;;;;;;4999754;28;20033;-79
2022/11/26 06:58:10;;;;;;;6.53;6.03;;;;;;;;;;5014920;28;20032;-77
2022/11/26 07:00:42;;;;;;;3.80;3.50;;;;;;;;;;4982161;28;20516;-77
2022/11/26 07:03:09;;;;;;;6.57;5.97;;;;;;;;;;5031641;28;20144;-78
2022/11/26 07:05:35;;;;;;;6.47;5.88;;;;;;;;;;4999790;28;20047;-77
2022/11/26 07:08:01;;;;;;;6.72;6.22;;;;;;;;;;5005359;28;20111;-77
2022/11/26 07:10:43;;;;;;;6.40;5.90;;;;;;;;;;5017488;28;20041;-78
2022/11/26 07:13:18;;;;;;;7.35;6.00;;;;;;;;;;5000419;28;20037;-77
2022/11/26 07:15:49;;;;;;;3.22;3.03;;;;;;;;;;5029643;28;20045;-77
2022/11/26 07:18:18;;;;;;;6.82;6.22;;;;;;;;;;4984153;28;20076;-77
2022/11/26 07:20:46;;;;;;;4.68;4.32;;;;;;;;;;5000761;28;20066;-77
2022/11/26 07:23:12;;;;;;;3.78;3.53;;;;;;;;;;5000706;28;20043;-77
2022/11/26 07:25:44;;;;;;;7.88;7.18;;;;;;;;;;5033597;28;20429;-77
2022/11/26 07:28:17;;;;;;;4.75;4.35;;;;;;;;;;5017251;28;20035;-77
2022/11/26 07:30:43;;;;;;;4.30;4.00;;;;;;;;;;5033390;28;20385;-77
2022/11/26 07:33:13;;;;;;;7.03;5.20;;;;;;;;;;5033918;28;20033;-77
2022/11/26 07:35:39;;;;;;;6.07;5.25;;;;;;;;;;4999846;28;20051;-77
2022/11/26 07:38:09;;;;;;;3.38;3.13;;;;;;;;;;5033459;28;20147;-77
2022/11/26 07:40:35;;;;;;;4.95;4.55;;;;;;;;;;5012685;28;20049;-77
2022/11/26 07:43:19;;;;;;;5.68;5.10;;;;;;;;;;5018552;28;20060;-77
2022/11/26 07:45:51;;;;;;;6.68;6.18;;;;;;;;;;5032607;28;20033;-78
2022/11/26 07:48:18;;;;;;;6.88;6.28;;;;;;;;;;5049275;28;20504;-78
2022/11/26 07:50:54;;;;;;;6.60;5.93;;;;;;;;;;5009231;28;20420;-78
2022/11/26 07:53:46;;;;;;;6.63;6.03;;;;;;;;;;5019713;28;20648;-75
2022/11/26 07:56:23;;;;;;;3.45;3.25;;;;;;;;;;5016877;28;20074;-75
2022/11/26 07:58:54;;;;;;;4.55;4.25;;;;;;;;;;5016530;28;20060;-75
2022/11/26 08:01:40;;;;;;;3.47;3.28;;;;;;;;;;5001905;28;20055;-76
2022/11/26 08:04:06;;;;;;;7.07;3.97;;;;;;;;;;5014585;28;20144;-75
2022/11/26 08:06:32;;;;;;;5.88;5.40;;;;;;;;;;4999472;28;20037;-75
2022/11/26 08:08:59;;;;;;;3.10;3.00;;;;;;;;;;5014974;28;20488;-75
2022/11/26 08:11:26;;;;;;;4.72;4.32;;;;;;;;;;5031615;28;20028;-75
2022/11/26 08:13:52;;;;;;;7.47;6.28;;;;;;;;;;5049290;28;20375;-75
2022/11/26 08:16:18;;;;;;;10.00;9.00;;;;;;;;;;4999081;28;20033;-77
2022/11/26 08:18:52;;;;;;;9.68;8.25;;;;;;;;;;4999017;28;20051;-77
2022/11/26 08:21:18;;;;;;;8.20;7.40;;;;;;;;;;5013915;28;20144;-77
2022/11/26 08:23:44;;;;;;;5.40;5.05;;;;;;;;;;5015236;28;20036;-78
2022/11/26 08:26:11;;;;;;;7.53;6.93;;;;;;;;;;5015011;28;20052;-77
2022/11/26 08:28:37;;;;;;;5.10;4.60;;;;;;;;;;5031766;28;20021;-77
2022/11/26 08:31:04;;;;;;;12.57;3.60;;;;;;;;;;5049204;28;20622;-78
2022/11/26 08:33:30;;;;;;;4.10;3.80;;;;;;;;;;5014282;28;20033;-78
2022/11/26 08:35:56;;;;;;;3.92;3.63;;;;;;;;;;5049770;28;20504;-77
2022/11/26 08:38:53;;;;;;;6.57;6.03;;;;;;;;;;5048702;28;20084;-78
2022/11/26 08:41:20;;;;;;;7.18;6.50;;;;;;;;;;5030645;28;20513;-78
2022/11/26 08:43:46;;;;;;;7.50;6.82;;;;;;;;;;4998636;28;20037;-75
2022/11/26 08:46:20;;;;;;;3.50;3.30;;;;;;;;;;5014854;28;20063;-77
2022/11/26 08:48:49;;;;;;;6.47;5.97;;;;;;;;;;5047794;28;20025;-79
2022/11/26 08:51:24;;;;;;;6.65;6.15;;;;;;;;;;5032086;28;20028;-77
2022/11/26 08:54:16;;;;;;;5.40;5.00;;;;;;;;;;5031402;28;20509;-79
2022/11/26 08:56:43;;;;;;;7.15;6.55;;;;;;;;;;5010774;28;20033;-80
2022/11/26 08:59:29;;;;;;;5.60;5.20;;;;;;;;;;5032980;28;20116;-82
2022/11/26 09:01:55;;;;;;;5.63;5.13;;;;;;;;;;5031551;28;20071;-84
2022/11/26 09:04:21;;;;;;;8.25;7.60;;;;;;;;;;4998052;28;20271;-81
2022/11/26 09:06:47;;;;;;;7.13;6.53;;;;;;;;;;4998389;28;20515;-82
2022/11/26 09:09:32;;;;;;;8.10;7.40;;;;;;;;;;5027902;28;20111;-82
2022/11/26 09:11:59;;;;;;;8.57;7.75;;;;;;;;;;5002938;28;20044;-81
2022/11/26 09:14:36;;;;;;;5.20;4.80;;;;;;;;;;5019054;28;20136;-81
2022/11/26 09:17:02;;;;;;;8.18;7.50;;;;;;;;;;5016295;28;20036;-79
2022/11/26 09:19:38;;;;;;;7.65;6.95;;;;;;;;;;5030128;28;20055;-83
2022/11/26 09:22:30;;;;;;;5.50;5.10;;;;;;;;;;5030616;28;20040;-83
2022/11/26 09:24:57;;;;;;;5.95;5.43;;;;;;;;;;5043018;28;20032;-83
2022/11/26 09:27:24;;;;;;;6.28;5.78;;;;;;;;;;5012426;28;20052;-80
2022/11/26 09:30:15;;;;;;;7.50;6.82;;;;;;;;;;5059809;28;20025;-84
2022/11/26 09:32:53;;;;;;;7.32;6.68;;;;;;;;;;5016270;28;20025;-79
2022/11/26 09:35:43;;;;;;;6.78;6.18;;;;;;;;;;5053368;28;20038;-82
2022/11/26 09:38:12;;;;;;;5.88;5.38;;;;;;;;;;5022095;28;20029;-81
2022/11/26 09:40:40;;;;;;;5.78;5.38;;;;;;;;;;5034916;28;20058;-79
2022/11/26 09:43:12;;;;;;;3.47;3.28;;;;;;;;;;5041799;28;20028;-85
2022/11/26 09:46:06;;;;;;;5.00;4.60;;;;;;;;;;5061238;28;20090;-81
2022/11/26 09:48:32;;;;;;;6.20;5.30;;;;;;;;;;5021344;28;20021;-81
2022/11/26 09:51:12;;;;;;;8.20;4.20;;;;;;;;;;5003469;28;20082;-82
2022/11/26 09:53:39;;;;;;;5.38;4.97;;;;;;;;;;5032072;28;20516;-80
2022/11/26 09:56:05;;;;;;;4.47;4.07;;;;;;;;;;5017831;28;20052;-84
2022/11/26 09:58:39;;;;;;;4.80;4.40;;;;;;;;;;5027660;28;20032;-82
2022/11/26 10:01:09;;;;;;;7.68;7.07;;;;;;;;;;5024697;28;20046;-81
2022/11/26 10:03:35;;;;;;;5.05;4.65;;;;;;;;;;5008879;28;20584;-79
2022/11/26 10:06:02;;;;;;;8.07;7.47;;;;;;;;;;4996371;28;20038;-82
2022/11/26 10:08:45;;;;;;;6.57;6.07;;;;;;;;;;5027096;28;20037;-83
2022/11/26 10:11:11;;;;;;;;;;;;;;;;;;5016992;28;20462;-84
2022/11/26 10:13:40;;;;;;;4.43;4.13;;;;;;;;;;5031302;28;19954;-81
2022/11/26 10:16:31;;;;;;;5.57;5.18;;;;;;;;;;5036636;28;20062;-84
2022/11/26 10:19:27;;;;;;;6.90;6.35;;;;;;;;;;5050388;28;20044;-79
2022/11/26 10:21:57;;;;;;;5.13;4.72;;;;;;;;;;5066550;28;20052;-79
2022/11/26 10:24:32;;;;;;;6.05;5.55;;;;;;;;;;5016720;28;20088;-79
2022/11/26 10:26:59;;;;;;;8.63;7.72;;;;;;;;;;5006627;28;20029;-78
2022/11/26 10:29:53;;;;;;;8.15;7.45;;;;;;;;;;5021370;28;20768;-77
2022/11/26 10:32:33;;;;;;;9.00;8.20;;;;;;;;;;5030829;28;20136;-76
2022/11/26 10:35:06;;;;;;;8.60;7.93;;;;;;;;;;5027195;28;20519;-80
2022/11/26 10:37:38;;;;;;;4.93;4.55;;;;;;;;;;5017717;28;20123;-78
2022/11/26 10:40:24;;;;;;;7.72;7.03;;;;;;;;;;5046644;28;20048;-78
2022/11/26 10:43:11;;;;;;;5.38;4.97;;;;;;;;;;5034137;28;20053;-78
2022/11/26 10:45:38;;;;;;;6.18;5.55;;;;;;;;;;5014402;28;20036;-78
2022/11/26 10:48:23;;;;;;;5.85;5.35;;;;;;;;;;5064892;28;20052;-79
2022/11/26 10:51:21;;;;;;;6.60;5.60;;;;;;;;;;5047566;28;20044;-78
2022/11/26 10:53:54;;;;;;;6.43;5.88;;;;;;;;;;5039314;28;20066;-77
2022/11/26 10:56:41;;;;;;;5.70;5.25;;;;;;;;;;5012168;28;20037;-78
2022/11/26 10:59:45;;;;;;;7.93;7.22;;;;;;;;;;5047745;28;20040;-78
2022/11/26 11:02:30;;;;;;;5.65;5.15;;;;;;;;;;5031189;28;20037;-78
2022/11/26 11:04:59;;;;;;;3.60;3.40;;;;;;;;;;5017140;28;20033;-74
2022/11/26 11:07:38;;;;;;;9.00;8.23;;;;;;;;;;5034885;28;20094;-76
2022/11/26 11:10:05;;;;;;;8.20;7.32;;;;;;;;;;5062483;28;20041;-77
2022/11/26 11:12:31;;;;;;;8.85;8.15;;;;;;;;;;5042854;28;20036;-77
2022/11/26 11:15:11;;;;;;;8.52;7.82;;;;;;;;;;5069238;28;20164;-77
2022/11/26 11:17:38;;;;;;;8.30;7.20;;;;;;;;;;5070620;28;20115;-76
2022/11/26 11:20:17;;;;;;;11.93;10.73;;;;;;;;;;5070482;28;20048;-76
2022/11/26 11:22:44;;;;;;;11.38;9.80;;;;;;;;;;5070870;28;20059;-76
2022/11/26 11:25:20;;;;;;;10.70;9.73;;;;;;;;;;5054454;28;20033;-77
2022/11/26 11:27:46;;;;;;;9.27;8.48;;;;;;;;;;5083836;28;20059;-77
2022/11/26 11:30:25;;;;;;;12.15;11.02;;;;;;;;;;5019642;28;20044;-76
2022/11/26 11:32:56;;;;;;;11.20;9.93;;;;;;;;;;5091437;28;20032;-77
2022/11/26 11:35:24;;;;;;;12.05;10.45;;;;;;;;;;5065170;28;20091;-76
2022/11/26 11:37:53;;;;;;;13.32;12.18;;;;;;;;;;5071981;28;20040;-76
2022/11/26 11:40:27;;;;;;;8.20;7.40;;;;;;;;;;5071570;28;20574;-76
2022/11/26 11:42:55;;;;;;;9.13;8.23;;;;;;;;;;5035593;28;20052;-76
2022/11/26 11:45:41;;;;;;;8.77;6.88;;;;;;;;;;5072013;28;20028;-76
2022/11/26 11:48:13;;;;;;;12.95;11.70;;;;;;;;;;5072121;28;20047;-76
2022/11/26 11:50:41;;;;;;;13.90;12.70;;;;;;;;;;5069969;28;20032;-76
2022/11/26 11:53:07;;;;;;;12.45;11.10;;;;;;;;;;5053604;28;20208;-76
2022/11/26 11:55:36;;;;;;;9.55;8.75;;;;;;;;;;5071395;28;20042;-75
2022/11/26 11:58:02;;;;;;;12.73;11.48;;;;;;;;;;5071558;28;20043;-76
2022/11/26 12:00:48;;;;;;;5.78;5.28;;;;;;;;;;5066560;28;20049;-77
2022/11/26 12:03:38;;;;;;;13.20;11.20;;;;;;;;;;5049494;28;20068;-76
2022/11/26 12:06:13;;;;;;;10.00;8.27;;;;;;;;;;5042807;28;20048;-76
2022/11/26 12:09:02;;;;;;;14.35;6.35;;;;;;;;;;5051043;28;20087;-76
2022/11/26 12:11:41;;;;;;;10.93;9.82;;;;;;;;;;5042957;28;20048;-76
2022/11/26 12:14:30;;;;;;;13.05;11.77;;;;;;;;;;5050107;28;20116;-76
2022/11/26 12:16:58;;;;;;;10.70;9.68;;;;;;;;;;5042905;28;20139;-75
2022/11/26 12:19:44;;;;;;;10.40;9.40;;;;;;;;;;5049727;28;20040;-76
2022/11/26 12:22:19;;;;;;;11.60;10.07;;;;;;;;;;5050564;28;20517;-76
2022/11/26 12:24:51;;;;;;;10.05;9.05;;;;;;;;;;5015722;28;20036;-77
2022/11/26 12:27:21;;;;;;;12.73;11.38;;;;;;;;;;5048953;28;20040;-76
2022/11/26 12:30:10;;;;;;;11.57;10.40;;;;;;;;;;5051087;28;20041;-76
2022/11/26 12:32:39;;;;;;;11.68;10.52;;;;;;;;;;5024198;28;20032;-76
2022/11/26 12:35:07;;;;;;;9.05;8.25;;;;;;;;;;5049333;28;20040;-76
2022/11/26 12:37:35;;;;;;;10.07;9.18;;;;;;;;;;5049555;28;20036;-75
2022/11/26 12:40:03;;;;;;;9.93;8.98;;;;;;;;;;5050325;28;20587;-75
2022/11/26 12:42:40;;;;;;;11.10;10.10;;;;;;;;;;5067345;28;20041;-76
2022/11/26 12:45:25;;;;;;;12.30;10.30;;;;;;;;;;5070364;28;20040;-76
2022/11/26 12:48:02;;;;;;;8.45;7.03;;;;;;;;;;5070192;28;20055;-75
2022/11/26 12:50:31;;;;;;;11.85;10.55;;;;;;;;;;5031748;28;20505;-75
2022/11/26 12:52:59;;;;;;;9.40;8.50;;;;;;;;;;5048087;28;20028;-76
2022/11/26 12:55:27;;;;;;;14.40;12.93;;;;;;;;;;5069900;28;20033;-76
2022/11/26 12:57:54;;;;;;;12.85;10.82;;;;;;;;;;5052089;28;20036;-76
2022/11/26 13:00:21;;;;;;;9.63;8.70;;;;;;;;;;5035229;28;20181;-76
2022/11/26 13:02:48;;;;;;;14.43;10.15;;;;;;;;;;5067513;28;20290;-76
2022/11/26 13:05:18;;;;;;;7.10;6.35;;;;;;;;;;5090269;28;20036;-76
2022/11/26 13:07:44;;;;;;;7.78;6.75;;;;;;;;;;5090562;28;20067;-76
2022/11/26 13:10:23;;;;;;;14.77;12.20;;;;;;;;;;5090321;28;20484;-76
2022/11/26 13:12:52;;;;;;;14.75;10.95;;;;;;;;;;5074084;28;20161;-76
2022/11/26 13:15:27;;;;;;;8.05;7.35;;;;;;;;;;5073037;28;20119;-77
2022/11/26 13:17:53;;;;;;;14.73;11.23;;;;;;;;;;5052254;28;20040;-77
2022/11/26 13:20:23;;;;;;;9.13;8.23;;;;;;;;;;5051371;28;20325;-77
2022/11/26 13:22:49;;;;;;;12.32;10.40;;;;;;;;;;5035216;28;20068;-74
2022/11/26 13:25:18;;;;;;;13.82;12.50;;;;;;;;;;5069432;28;20203;-74
2022/11/26 13:27:59;;;;;;;10.27;9.27;;;;;;;;;;5051978;28;20036;-76
2022/11/26 13:30:34;;;;;;;13.25;11.95;;;;;;;;;;5051399;28;20024;-77
2022/11/26 13:33:00;;;;;;;10.45;9.35;;;;;;;;;;5069678;28;20064;-76
2022/11/26 13:35:45;;;;;;;13.57;11.85;;;;;;;;;;5069435;28;20146;-76
2022/11/26 13:38:23;;;;;;;10.60;8.50;;;;;;;;;;5052735;28;20411;-76
2022/11/26 13:41:08;;;;;;;14.20;9.93;;;;;;;;;;5035581;28;20060;-78
2022/11/26 13:43:37;;;;;;;18.08;14.90;;;;;;;;;;5070030;28;20504;-76
2022/11/26 13:46:14;;;;;;;8.07;7.03;;;;;;;;;;5051768;28;20119;-77
2022/11/26 13:48:43;;;;;;;15.77;13.68;;;;;;;;;;5052556;28;20504;-77
2022/11/26 13:51:28;;;;;;;19.15;14.13;;;;;;;;;;5050254;28;20063;-77
2022/11/26 13:54:17;;;;;;;26.45;19.23;;;;;;;;;;5063515;28;20036;-76
2022/11/26 13:56:43;;;;;;;18.20;15.82;;;;;;;;;;5027248;28;20056;-75
2022/11/26 13:59:16;;;;;;;17.38;13.82;;;;;;;;;;5057225;28;20408;-74
2022/11/26 14:01:42;;;;;;;13.98;11.30;;;;;;;;;;5041707;28;20119;-74
2022/11/26 14:04:09;;;;;;;13.23;11.27;;;;;;;;;;5049560;28;20397;-74
2022/11/26 14:06:35;;;;;;;14.75;7.38;;;;;;;;;;5067815;28;20032;-74
2022/11/26 14:09:01;;;;;;;21.05;13.55;;;;;;;;;;5050371;28;20090;-75
2022/11/26 14:11:40;;;;;;;13.02;11.45;;;;;;;;;;5018039;28;20059;-75
2022/11/26 14:14:24;;;;;;;12.73;9.95;;;;;;;;;;5044329;28;20519;-74
2022/11/26 14:17:02;;;;;;;10.30;8.45;;;;;;;;;;5060129;28;20118;-74
2022/11/26 14:19:38;;;;;;;9.73;8.65;;;;;;;;;;5065008;28;20037;-75
2022/11/26 14:22:04;;;;;;;25.17;20.20;;;;;;;;;;5062208;28;20060;-75
2022/11/26 14:24:49;;;;;;;16.23;12.18;;;;;;;;;;5061732;28;20028;-75
2022/11/26 14:27:17;;;;;;;21.02;16.85;;;;;;;;;;5061621;28;20455;-74
2022/11/26 14:29:44;;;;;;;12.30;10.05;;;;;;;;;;5058874;28;20025;-74
2022/11/26 14:32:14;;;;;;;9.65;8.73;;;;;;;;;;5058313;28;20043;-75
2022/11/26 14:34:41;;;;;;;15.55;11.65;;;;;;;;;;5041396;28;20496;-74
2022/11/26 14:40:31;;;;;;;15.52;12.23;;;;;;;;;;5060942;28;20111;-76
2022/11/26 14:43:08;;;;;;;11.73;9.23;;;;;;;;;;5042966;28;20032;-75
2022/11/26 14:45:34;;;;;;;17.90;13.10;;;;;;;;;;5028326;28;20036;-76
2022/11/26 14:48:00;;;;;;;11.73;10.50;;;;;;;;;;5015940;28;20029;-75
2022/11/26 14:50:28;;;;;;;19.35;13.13;;;;;;;;;;5048036;28;20453;-76
2022/11/26 14:52:54;;;;;;;15.80;12.85;;;;;;;;;;5050541;28;20033;-76
2022/11/26 14:55:24;;;;;;;24.02;16.35;;;;;;;;;;5050633;28;20045;-74
2022/11/26 14:57:52;;;;;;;19.73;14.13;;;;;;;;;;5052390;28;20028;-74
2022/11/26 15:00:28;;;;;;;22.92;16.80;;;;;;;;;;5052537;28;20036;-75
2022/11/26 15:02:54;;;;;;;15.27;10.90;;;;;;;;;;5052876;28;20040;-76
2022/11/26 15:08:26;;;;;;;19.55;15.32;;;;;;;;;;5033997;28;20064;-75
2022/11/26 15:10:56;;;;;;;11.07;8.85;;;;;;;;;;5043125;28;20464;-75
2022/11/26 15:13:39;;;;;;;16.07;12.23;;;;;;;;;;5015470;28;20048;-75
2022/11/26 15:16:24;;;;;;;6.25;5.75;;;;;;;;;;5068234;28;20032;-75
2022/11/26 15:18:50;;;;;;;13.15;11.02;;;;;;;;;;5069060;28;20127;-74
2022/11/26 15:21:18;;;;;;;18.48;14.05;;;;;;;;;;5043231;28;20041;-76
2022/11/26 15:23:45;;;;;;;15.63;12.15;;;;;;;;;;5052624;28;20117;-74
2022/11/26 15:26:15;;;;;;;23.10;17.45;;;;;;;;;;5065479;28;20025;-75
2022/11/26 15:28:41;;;;;;;20.90;12.93;;;;;;;;;;5064637;28;20032;-75